sensor_id;sensor_type;location;lat;lon;timestamp;pressure;altitude;pressure_sealevel;temperature;humidity
80405;BME280;69733;48.744;9.176;2023-11-18T00:00:04;97646.91;;;3.85;100.00
80405;BME280;69733;48.744;9.176;2023-11-18T00:02:36;97648.56;;;3.86;100.00
80405;BME280;69733;48.744;9.176;2023-11-18T00:05:01;97648.88;;;3.91;100.00
80405;BME280;69733;48.744;9.176;2023-11-18T00:07:26;97641.47;;;3.94;100.00
80405;BME280;69733;48.744;9.176;2023-11-18T00:09:52;97648.88;;;3.99;100.00
80405;BME280;69733;48.744;9.176;2023-11-18T00:12:17;97656.44;;;4.02;100.00
80405;BME280;69733;48.744;9.176;2023-11-18T00:14:42;97650.19;;;4.03;100.00
80405;BME280;69733;48.744;9.176;2023-11-18T00:17:08;97648.69;;;4.09;100.00
80405;BME280;69733;48.744;9.176;2023-11-18T00:19:33;97650.16;;;4.11;100.00
80405;BME280;69733;48.744;9.176;2023-11-18T00:22:01;97651.81;;;4.12;100.00
80405;BME280;69733;48.744;9.176;2023-11-18T00:24:26;97646.38;;;4.14;100.00
80405;BME280;69733;48.744;9.176;2023-11-18T00:26:51;97638.31;;;4.15;100.00
80405;BME280;69733;48.744;9.176;2023-11-18T00:29:17;97646.69;;;4.19;100.00
80405;BME280;69733;48.744;9.176;2023-11-18T00:31:42;97639.63;;;4.19;100.00
80405;BME280;69733;48.744;9.176;2023-11-18T00:34:07;97638.63;;;4.20;100.00
80405;BME280;69733;48.744;9.176;2023-11-18T00:36:33;97636.50;;;4.24;100.00
80405;BME280;69733;48.744;9.176;2023-11-18T00:38:58;97641.91;;;4.22;100.00
80405;BME280;69733;48.744;9.176;2023-11-18T00:41:23;97647.84;;;4.24;100.00
80405;BME280;69733;48.744;9.176;2023-11-18T00:43:48;97646.03;;;4.25;100.00
80405;BME280;69733;48.744;9.176;2023-11-18T00:46:14;97646.69;;;4.27;100.00
80405;BME280;69733;48.744;9.176;2023-11-18T00:48:39;97644.19;;;4.33;100.00
80405;BME280;69733;48.744;9.176;2023-11-18T00:51:07;97641.72;;;4.40;100.00
80405;BME280;69733;48.744;9.176;2023-11-18T00:53:33;97633.66;;;4.41;100.00
80405;BME280;69733;48.744;9.176;2023-11-18T00:55:58;97633.31;;;4.44;100.00
80405;BME280;69733;48.744;9.176;2023-11-18T00:58:23;97641.53;;;4.49;100.00
80405;BME280;69733;48.744;9.176;2023-11-18T01:00:49;97635.09;;;4.52;100.00
80405;BME280;69733;48.744;9.176;2023-11-18T01:03:14;65827.00;;;-141.59;100.00
80405;BME280;69733;48.744;9.176;2023-11-18T01:05:39;65827.00;;;-141.59;100.00
80405;BME280;69733;48.744;9.176;2023-11-18T01:08:04;65827.00;;;-141.59;100.00
80405;BME280;69733;48.744;9.176;2023-11-18T01:10:30;65827.00;;;-141.59;100.00
80405;BME280;69733;48.744;9.176;2023-11-18T01:12:56;65827.00;;;-141.59;100.00
80405;BME280;69733;48.744;9.176;2023-11-18T01:15:23;65827.00;;;-141.59;100.00
80405;BME280;69733;48.744;9.176;2023-11-18T01:17:48;65827.00;;;-141.59;100.00
80405;BME280;69733;48.744;9.176;2023-11-18T01:20:14;65827.00;;;-141.59;100.00
80405;BME280;69733;48.744;9.176;2023-11-18T01:22:39;65827.00;;;-141.59;100.00
80405;BME280;69733;48.744;9.176;2023-11-18T01:25:07;65827.00;;;-141.59;100.00
80405;BME280;69733;48.744;9.176;2023-11-18T01:27:34;65827.00;;;-141.59;100.00
80405;BME280;69733;48.744;9.176;2023-11-18T01:30:00;65827.00;;;-141.59;100.00
80405;BME280;69733;48.744;9.176;2023-11-18T01:32:25;65827.00;;;-141.59;100.00
80405;BME280;69733;48.744;9.176;2023-11-18T01:34:51;65827.00;;;-141.59;100.00
80405;BME280;69733;48.744;9.176;2023-11-18T01:37:16;65827.00;;;-141.59;100.00
80405;BME280;69733;48.744;9.176;2023-11-18T01:39:42;65827.00;;;-141.59;100.00
80405;BME280;69733;48.744;9.176;2023-11-18T01:42:08;65827.00;;;-141.59;100.00
80405;BME280;69733;48.744;9.176;2023-11-18T01:44:33;65827.00;;;-141.59;100.00
80405;BME280;69733;48.744;9.176;2023-11-18T01:47:01;65827.00;;;-141.59;100.00
80405;BME280;69733;48.744;9.176;2023-11-18T01:49:31;65827.00;;;-141.59;100.00
80405;BME280;69733;48.744;9.176;2023-11-18T01:51:57;65827.00;;;-141.59;100.00
80405;BME280;69733;48.744;9.176;2023-11-18T01:54:24;65827.00;;;-141.59;100.00
80405;BME280;69733;48.744;9.176;2023-11-18T01:56:50;65827.00;;;-141.59;100.00
80405;BME280;69733;48.744;9.176;2023-11-18T01:59:17;65827.00;;;-141.59;100.00
80405;BME280;69733;48.744;9.176;2023-11-18T02:01:50;65827.00;;;-141.59;100.00
80405;BME280;69733;48.744;9.176;2023-11-18T02:04:18;65827.00;;;-141.59;100.00
80405;BME280;69733;48.744;9.176;2023-11-18T02:06:45;65827.00;;;-141.59;100.00
80405;BME280;69733;48.744;9.176;2023-11-18T02:09:12;65827.00;;;-141.59;100.00
80405;BME280;69733;48.744;9.176;2023-11-18T02:14:27;65827.00;;;-141.59;100.00
80405;BME280;69733;48.744;9.176;2023-11-18T02:16:56;65827.00;;;-141.59;100.00
80405;BME280;69733;48.744;9.176;2023-11-18T02:19:24;65827.00;;;-141.59;100.00
80405;BME280;69733;48.744;9.176;2023-11-18T02:21:52;65827.00;;;-141.59;100.00
80405;BME280;69733;48.744;9.176;2023-11-18T02:24:29;65827.00;;;-141.59;100.00
80405;BME280;69733;48.744;9.176;2023-11-18T02:27:00;65827.00;;;-141.59;100.00
80405;BME280;69733;48.744;9.176;2023-11-18T02:29:28;65827.00;;;-141.59;100.00
80405;BME280;69733;48.744;9.176;2023-11-18T02:31:59;65827.00;;;-141.59;100.00
80405;BME280;69733;48.744;9.176;2023-11-18T02:34:29;65827.00;;;-141.59;100.00
80405;BME280;69733;48.744;9.176;2023-11-18T02:36:57;65827.00;;;-141.59;100.00
80405;BME280;69733;48.744;9.176;2023-11-18T02:39:45;65827.00;;;-141.59;100.00
80405;BME280;69733;48.744;9.176;2023-11-18T02:42:16;65827.00;;;-141.59;100.00
80405;BME280;69733;48.744;9.176;2023-11-18T02:44:42;65827.00;;;-141.59;100.00
80405;BME280;69733;48.744;9.176;2023-11-18T02:47:08;65827.00;;;-141.59;100.00
80405;BME280;69733;48.744;9.176;2023-11-18T02:49:35;65827.00;;;-141.59;100.00
80405;BME280;69733;48.744;9.176;2023-11-18T02:52:00;65827.00;;;-141.59;100.00
80405;BME280;69733;48.744;9.176;2023-11-18T02:54:26;65827.00;;;-141.59;100.00
80405;BME280;69733;48.744;9.176;2023-11-18T02:56:51;65827.00;;;-141.59;100.00
80405;BME280;69733;48.744;9.176;2023-11-18T02:59:16;65827.00;;;-141.59;100.00
80405;BME280;69733;48.744;9.176;2023-11-18T03:01:42;65827.00;;;-141.59;100.00
80405;BME280;69733;48.744;9.176;2023-11-18T03:04:07;65827.00;;;-141.59;100.00
80405;BME280;69733;48.744;9.176;2023-11-18T03:06:33;65827.00;;;-141.59;100.00
80405;BME280;69733;48.744;9.176;2023-11-18T03:09:00;65827.00;;;-141.59;100.00
80405;BME280;69733;48.744;9.176;2023-11-18T03:11:25;65827.00;;;-141.59;100.00
80405;BME280;69733;48.744;9.176;2023-11-18T03:13:53;65827.00;;;-141.59;100.00
80405;BME280;69733;48.744;9.176;2023-11-18T03:16:19;65827.00;;;-141.59;100.00
80405;BME280;69733;48.744;9.176;2023-11-18T03:18:44;65827.00;;;-141.59;100.00
80405;BME280;69733;48.744;9.176;2023-11-18T03:21:11;65827.00;;;-141.59;100.00
80405;BME280;69733;48.744;9.176;2023-11-18T03:23:37;65827.00;;;-141.59;100.00
80405;BME280;69733;48.744;9.176;2023-11-18T03:26:03;65827.00;;;-141.59;100.00
80405;BME280;69733;48.744;9.176;2023-11-18T03:28:29;65827.00;;;-141.59;100.00
80405;BME280;69733;48.744;9.176;2023-11-18T03:30:55;65827.00;;;-141.59;100.00
80405;BME280;69733;48.744;9.176;2023-11-18T03:33:20;65827.00;;;-141.59;100.00
80405;BME280;69733;48.744;9.176;2023-11-18T03:35:45;65827.00;;;-141.59;100.00
80405;BME280;69733;48.744;9.176;2023-11-18T03:38:11;65827.00;;;-141.59;100.00
80405;BME280;69733;48.744;9.176;2023-11-18T03:40:36;65827.00;;;-141.59;100.00
80405;BME280;69733;48.744;9.176;2023-11-18T03:43:01;65827.00;;;-141.59;100.00
80405;BME280;69733;48.744;9.176;2023-11-18T03:45:28;65827.00;;;-141.59;100.00
80405;BME280;69733;48.744;9.176;2023-11-18T03:47:53;65827.00;;;-141.59;100.00
80405;BME280;69733;48.744;9.176;2023-11-18T03:50:18;65827.00;;;-141.59;100.00
80405;BME280;69733;48.744;9.176;2023-11-18T03:52:44;65827.00;;;-141.59;100.00
80405;BME280;69733;48.744;9.176;2023-11-18T03:55:09;65827.00;;;-141.59;100.00
80405;BME280;69733;48.744;9.176;2023-11-18T03:57:35;65827.00;;;-141.59;100.00
80405;BME280;69733;48.744;9.176;2023-11-18T04:00:00;65827.00;;;-141.59;100.00
80405;BME280;69733;48.744;9.176;2023-11-18T04:02:25;65827.00;;;-141.59;100.00
80405;BME280;69733;48.744;9.176;2023-11-18T04:04:51;65827.00;;;-141.59;100.00
80405;BME280;69733;48.744;9.176;2023-11-18T04:07:16;65827.00;;;-141.59;100.00
80405;BME280;69733;48.744;9.176;2023-11-18T04:09:41;65827.00;;;-141.59;100.00
80405;BME280;69733;48.744;9.176;2023-11-18T04:12:08;65827.00;;;-141.59;100.00
80405;BME280;69733;48.744;9.176;2023-11-18T04:14:34;65827.00;;;-141.59;100.00
80405;BME280;69733;48.744;9.176;2023-11-18T04:17:00;65827.00;;;-141.59;100.00
80405;BME280;69733;48.744;9.176;2023-11-18T04:19:25;65827.00;;;-141.59;100.00
80405;BME280;69733;48.744;9.176;2023-11-18T04:21:51;65827.00;;;-141.59;100.00
80405;BME280;69733;48.744;9.176;2023-11-18T04:24:16;65827.00;;;-141.59;100.00
80405;BME280;69733;48.744;9.176;2023-11-18T04:26:41;65827.00;;;-141.59;100.00
80405;BME280;69733;48.744;9.176;2023-11-18T04:29:07;65827.00;;;-141.59;100.00
80405;BME280;69733;48.744;9.176;2023-11-18T04:31:32;65827.00;;;-141.59;100.00
80405;BME280;69733;48.744;9.176;2023-11-18T04:33:59;65827.00;;;-141.59;100.00
80405;BME280;69733;48.744;9.176;2023-11-18T04:36:24;65827.00;;;-141.59;100.00
80405;BME280;69733;48.744;9.176;2023-11-18T04:38:51;65827.00;;;-141.59;100.00
80405;BME280;69733;48.744;9.176;2023-11-18T04:41:17;65827.00;;;-141.59;100.00
80405;BME280;69733;48.744;9.176;2023-11-18T04:43:42;65827.00;;;-141.59;100.00
80405;BME280;69733;48.744;9.176;2023-11-18T04:46:07;65827.00;;;-141.59;100.00
80405;BME280;69733;48.744;9.176;2023-11-18T04:48:33;65827.00;;;-141.59;100.00
80405;BME280;69733;48.744;9.176;2023-11-18T04:50:59;65827.00;;;-141.59;100.00
80405;BME280;69733;48.744;9.176;2023-11-18T04:53:25;65827.00;;;-141.59;100.00
80405;BME280;69733;48.744;9.176;2023-11-18T04:55:51;65827.00;;;-141.59;100.00
80405;BME280;69733;48.744;9.176;2023-11-18T04:58:16;65827.00;;;-141.59;100.00
80405;BME280;69733;48.744;9.176;2023-11-18T05:00:42;65827.00;;;-141.59;100.00
80405;BME280;69733;48.744;9.176;2023-11-18T05:03:08;65827.00;;;-141.59;100.00
80405;BME280;69733;48.744;9.176;2023-11-18T05:05:38;65827.00;;;-141.59;100.00
80405;BME280;69733;48.744;9.176;2023-11-18T05:08:04;65827.00;;;-141.59;100.00
80405;BME280;69733;48.744;9.176;2023-11-18T05:10:32;65827.00;;;-141.59;100.00
80405;BME280;69733;48.744;9.176;2023-11-18T05:12:58;65827.00;;;-141.59;100.00
80405;BME280;69733;48.744;9.176;2023-11-18T05:15:23;65827.00;;;-141.59;100.00
80405;BME280;69733;48.744;9.176;2023-11-18T05:17:52;65827.00;;;-141.59;100.00
80405;BME280;69733;48.744;9.176;2023-11-18T05:20:19;65827.00;;;-141.59;100.00
80405;BME280;69733;48.744;9.176;2023-11-18T05:22:44;65827.00;;;-141.59;100.00
80405;BME280;69733;48.744;9.176;2023-11-18T05:25:09;65827.00;;;-141.59;100.00
80405;BME280;69733;48.744;9.176;2023-11-18T05:27:35;65827.00;;;-141.59;100.00
80405;BME280;69733;48.744;9.176;2023-11-18T05:30:00;65827.00;;;-141.59;100.00
80405;BME280;69733;48.744;9.176;2023-11-18T05:32:29;65827.00;;;-141.59;100.00
80405;BME280;69733;48.744;9.176;2023-11-18T05:34:55;65827.00;;;-141.59;100.00
80405;BME280;69733;48.744;9.176;2023-11-18T05:37:23;65827.00;;;-141.59;100.00
80405;BME280;69733;48.744;9.176;2023-11-18T05:39:49;65827.00;;;-141.59;100.00
80405;BME280;69733;48.744;9.176;2023-11-18T05:42:24;65827.00;;;-141.59;100.00
80405;BME280;69733;48.744;9.176;2023-11-18T05:44:50;65827.00;;;-141.59;100.00
80405;BME280;69733;48.744;9.176;2023-11-18T05:47:23;65827.00;;;-141.59;100.00
80405;BME280;69733;48.744;9.176;2023-11-18T05:49:48;65827.00;;;-141.59;100.00
80405;BME280;69733;48.744;9.176;2023-11-18T05:52:14;65827.00;;;-141.59;100.00
80405;BME280;69733;48.744;9.176;2023-11-18T05:54:39;65827.00;;;-141.59;100.00
80405;BME280;69733;48.744;9.176;2023-11-18T05:57:04;65827.00;;;-141.59;100.00
80405;BME280;69733;48.744;9.176;2023-11-18T05:59:30;65827.00;;;-141.59;100.00
80405;BME280;69733;48.744;9.176;2023-11-18T06:01:55;65827.00;;;-141.59;100.00
80405;BME280;69733;48.744;9.176;2023-11-18T06:04:22;65827.00;;;-141.59;100.00
80405;BME280;69733;48.744;9.176;2023-11-18T06:06:47;65827.00;;;-141.59;100.00
80405;BME280;69733;48.744;9.176;2023-11-18T06:09:12;65827.00;;;-141.59;100.00
80405;BME280;69733;48.744;9.176;2023-11-18T06:11:45;65827.00;;;-141.59;100.00
80405;BME280;69733;48.744;9.176;2023-11-18T06:14:11;65827.00;;;-141.59;100.00
80405;BME280;69733;48.744;9.176;2023-11-18T06:16:38;65827.00;;;-141.59;100.00
80405;BME280;69733;48.744;9.176;2023-11-18T06:19:06;65827.00;;;-141.59;100.00
80405;BME280;69733;48.744;9.176;2023-11-18T06:21:31;65827.00;;;-141.59;100.00
80405;BME280;69733;48.744;9.176;2023-11-18T06:23:58;65827.00;;;-141.59;100.00
80405;BME280;69733;48.744;9.176;2023-11-18T06:26:24;65827.00;;;-141.59;100.00
80405;BME280;69733;48.744;9.176;2023-11-18T06:28:52;65827.00;;;-141.59;100.00
80405;BME280;69733;48.744;9.176;2023-11-18T06:31:18;65827.00;;;-141.59;100.00
80405;BME280;69733;48.744;9.176;2023-11-18T06:33:45;65827.00;;;-141.59;100.00
80405;BME280;69733;48.744;9.176;2023-11-18T06:38:39;65827.00;;;-141.59;100.00
80405;BME280;69733;48.744;9.176;2023-11-18T06:41:05;65827.00;;;-141.59;100.00
80405;BME280;69733;48.744;9.176;2023-11-18T06:43:35;65827.00;;;-141.59;100.00
80405;BME280;69733;48.744;9.176;2023-11-18T06:46:16;65827.00;;;-141.59;100.00
80405;BME280;69733;48.744;9.176;2023-11-18T06:48:42;65827.00;;;-141.59;100.00
80405;BME280;69733;48.744;9.176;2023-11-18T06:51:07;65827.00;;;-141.59;100.00
80405;BME280;69733;48.744;9.176;2023-11-18T06:53:33;65827.00;;;-141.59;100.00
80405;BME280;69733;48.744;9.176;2023-11-18T06:55:59;65827.00;;;-141.59;100.00
80405;BME280;69733;48.744;9.176;2023-11-18T06:58:25;65827.00;;;-141.59;100.00
80405;BME280;69733;48.744;9.176;2023-11-18T07:00:50;65827.00;;;-141.59;100.00
80405;BME280;69733;48.744;9.176;2023-11-18T07:03:16;65827.00;;;-141.59;100.00
80405;BME280;69733;48.744;9.176;2023-11-18T07:05:41;65827.00;;;-141.59;100.00
80405;BME280;69733;48.744;9.176;2023-11-18T07:08:06;65827.00;;;-141.59;100.00
80405;BME280;69733;48.744;9.176;2023-11-18T07:10:33;65827.00;;;-141.59;100.00
80405;BME280;69733;48.744;9.176;2023-11-18T07:13:00;65827.00;;;-141.59;100.00
80405;BME280;69733;48.744;9.176;2023-11-18T07:15:25;65827.00;;;-141.59;100.00
80405;BME280;69733;48.744;9.176;2023-11-18T07:17:50;65827.00;;;-141.59;100.00
80405;BME280;69733;48.744;9.176;2023-11-18T07:20:16;65827.00;;;-141.59;100.00
80405;BME280;69733;48.744;9.176;2023-11-18T07:22:42;65827.00;;;-141.59;100.00
80405;BME280;69733;48.744;9.176;2023-11-18T07:25:07;65827.00;;;-141.59;100.00
80405;BME280;69733;48.744;9.176;2023-11-18T07:27:35;65827.00;;;-141.59;100.00
80405;BME280;69733;48.744;9.176;2023-11-18T07:30:00;65827.00;;;-141.59;100.00
80405;BME280;69733;48.744;9.176;2023-11-18T07:32:25;65827.00;;;-141.59;100.00
80405;BME280;69733;48.744;9.176;2023-11-18T07:34:51;65827.00;;;-141.59;100.00
80405;BME280;69733;48.744;9.176;2023-11-18T07:37:16;65827.00;;;-141.59;100.00
80405;BME280;69733;48.744;9.176;2023-11-18T07:39:42;65827.00;;;-141.59;100.00
80405;BME280;69733;48.744;9.176;2023-11-18T07:42:13;65827.00;;;-141.59;100.00
80405;BME280;69733;48.744;9.176;2023-11-18T07:44:38;65827.00;;;-141.59;100.00
80405;BME280;69733;48.744;9.176;2023-11-18T07:47:04;65827.00;;;-141.59;100.00
80405;BME280;69733;48.744;9.176;2023-11-18T07:49:34;65827.00;;;-141.59;100.00
80405;BME280;69733;48.744;9.176;2023-11-18T07:52:01;65827.00;;;-141.59;100.00
80405;BME280;69733;48.744;9.176;2023-11-18T07:54:26;65827.00;;;-141.59;100.00
80405;BME280;69733;48.744;9.176;2023-11-18T07:56:52;65827.00;;;-141.59;100.00
80405;BME280;69733;48.744;9.176;2023-11-18T07:59:18;65827.00;;;-141.59;100.00
80405;BME280;69733;48.744;9.176;2023-11-18T08:01:44;65827.00;;;-141.59;100.00
80405;BME280;69733;48.744;9.176;2023-11-18T08:04:11;65827.00;;;-141.59;100.00
80405;BME280;69733;48.744;9.176;2023-11-18T08:06:39;65827.00;;;-141.59;100.00
80405;BME280;69733;48.744;9.176;2023-11-18T08:09:04;65827.00;;;-141.59;100.00
80405;BME280;69733;48.744;9.176;2023-11-18T08:11:29;65827.00;;;-141.59;100.00
80405;BME280;69733;48.744;9.176;2023-11-18T08:13:55;65827.00;;;-141.59;100.00
80405;BME280;69733;48.744;9.176;2023-11-18T08:16:20;65827.00;;;-141.59;100.00
80405;BME280;69733;48.744;9.176;2023-11-18T08:18:47;65827.00;;;-141.59;100.00
80405;BME280;69733;48.744;9.176;2023-11-18T08:21:13;65827.00;;;-141.59;100.00
80405;BME280;69733;48.744;9.176;2023-11-18T08:23:39;65827.00;;;-141.59;100.00
80405;BME280;69733;48.744;9.176;2023-11-18T08:26:04;65827.00;;;-141.59;100.00
80405;BME280;69733;48.744;9.176;2023-11-18T08:28:31;65827.00;;;-141.59;100.00
80405;BME280;69733;48.744;9.176;2023-11-18T08:30:56;65827.00;;;-141.59;100.00
80405;BME280;69733;48.744;9.176;2023-11-18T08:33:22;65827.00;;;-141.59;100.00
80405;BME280;69733;48.744;9.176;2023-11-18T08:35:49;65827.00;;;-141.59;100.00
80405;BME280;69733;48.744;9.176;2023-11-18T08:38:15;65827.00;;;-141.59;100.00
80405;BME280;69733;48.744;9.176;2023-11-18T08:40:40;65827.00;;;-141.59;100.00
80405;BME280;69733;48.744;9.176;2023-11-18T08:43:07;65827.00;;;-141.59;100.00
80405;BME280;69733;48.744;9.176;2023-11-18T08:45:33;65827.00;;;-141.59;100.00
80405;BME280;69733;48.744;9.176;2023-11-18T08:48:01;65827.00;;;-141.59;100.00
80405;BME280;69733;48.744;9.176;2023-11-18T08:50:27;65827.00;;;-141.59;100.00
80405;BME280;69733;48.744;9.176;2023-11-18T08:52:54;65827.00;;;-141.59;100.00
80405;BME280;69733;48.744;9.176;2023-11-18T08:55:24;65827.00;;;-141.59;100.00
80405;BME280;69733;48.744;9.176;2023-11-18T08:58:03;65827.00;;;-141.59;100.00
80405;BME280;69733;48.744;9.176;2023-11-18T09:00:40;65827.00;;;-141.59;100.00
80405;BME280;69733;48.744;9.176;2023-11-18T09:03:21;65827.00;;;-141.59;100.00
80405;BME280;69733;48.744;9.176;2023-11-18T09:05:59;65827.00;;;-141.59;100.00
80405;BME280;69733;48.744;9.176;2023-11-18T09:08:31;65827.00;;;-141.59;100.00
80405;BME280;69733;48.744;9.176;2023-11-18T09:11:10;65827.00;;;-141.59;100.00
80405;BME280;69733;48.744;9.176;2023-11-18T09:13:46;65827.00;;;-141.59;100.00
80405;BME280;69733;48.744;9.176;2023-11-18T09:16:14;65827.00;;;-141.59;100.00
80405;BME280;69733;48.744;9.176;2023-11-18T09:18:41;65827.00;;;-141.59;100.00
80405;BME280;69733;48.744;9.176;2023-11-18T09:21:08;65827.00;;;-141.59;100.00
80405;BME280;69733;48.744;9.176;2023-11-18T09:23:40;65827.00;;;-141.59;100.00
80405;BME280;69733;48.744;9.176;2023-11-18T09:26:06;65827.00;;;-141.59;100.00
80405;BME280;69733;48.744;9.176;2023-11-18T09:28:36;65827.00;;;-141.59;100.00
80405;BME280;69733;48.744;9.176;2023-11-18T09:31:02;65827.00;;;-141.59;100.00
80405;BME280;69733;48.744;9.176;2023-11-18T09:33:32;65827.00;;;-141.59;100.00
80405;BME280;69733;48.744;9.176;2023-11-18T09:36:08;65827.00;;;-141.59;100.00
80405;BME280;69733;48.744;9.176;2023-11-18T09:38:34;65827.00;;;-141.59;100.00
80405;BME280;69733;48.744;9.176;2023-11-18T09:41:03;65827.00;;;-141.59;100.00
80405;BME280;69733;48.744;9.176;2023-11-18T09:43:30;65827.00;;;-141.59;100.00
80405;BME280;69733;48.744;9.176;2023-11-18T09:46:01;65827.00;;;-141.59;100.00
80405;BME280;69733;48.744;9.176;2023-11-18T09:48:29;65827.00;;;-141.59;100.00
80405;BME280;69733;48.744;9.176;2023-11-18T09:51:03;65827.00;;;-141.59;100.00
80405;BME280;69733;48.744;9.176;2023-11-18T09:53:31;65827.00;;;-141.59;100.00
80405;BME280;69733;48.744;9.176;2023-11-18T09:56:11;65827.00;;;-141.59;100.00
80405;BME280;69733;48.744;9.176;2023-11-18T09:59:01;65827.00;;;-141.59;100.00
80405;BME280;69733;48.744;9.176;2023-11-18T10:01:35;65827.00;;;-141.59;100.00
80405;BME280;69733;48.744;9.176;2023-11-18T10:04:04;65827.00;;;-141.59;100.00
80405;BME280;69733;48.744;9.176;2023-11-18T10:06:34;65827.00;;;-141.59;100.00
80405;BME280;69733;48.744;9.176;2023-11-18T10:09:02;65827.00;;;-141.59;100.00
80405;BME280;69733;48.744;9.176;2023-11-18T10:11:41;65827.00;;;-141.59;100.00
80405;BME280;69733;48.744;9.176;2023-11-18T10:14:06;65827.00;;;-141.59;100.00
80405;BME280;69733;48.744;9.176;2023-11-18T10:16:33;65827.00;;;-141.59;100.00
80405;BME280;69733;48.744;9.176;2023-11-18T10:18:59;65827.00;;;-141.59;100.00
80405;BME280;69733;48.744;9.176;2023-11-18T10:21:35;65827.00;;;-141.59;100.00
80405;BME280;69733;48.744;9.176;2023-11-18T10:24:08;65827.00;;;-141.59;100.00
80405;BME280;69733;48.744;9.176;2023-11-18T10:26:40;65827.00;;;-141.59;100.00
80405;BME280;69733;48.744;9.176;2023-11-18T10:29:06;65827.00;;;-141.59;100.00
80405;BME280;69733;48.744;9.176;2023-11-18T10:31:33;65827.00;;;-141.59;100.00
80405;BME280;69733;48.744;9.176;2023-11-18T10:34:01;65827.00;;;-141.59;100.00
80405;BME280;69733;48.744;9.176;2023-11-18T10:36:26;65827.00;;;-141.59;100.00
80405;BME280;69733;48.744;9.176;2023-11-18T10:38:52;65827.00;;;-141.59;100.00
80405;BME280;69733;48.744;9.176;2023-11-18T10:41:21;65827.00;;;-141.59;100.00
80405;BME280;69733;48.744;9.176;2023-11-18T10:43:46;65827.00;;;-141.59;100.00
80405;BME280;69733;48.744;9.176;2023-11-18T10:46:14;65827.00;;;-141.59;100.00
80405;BME280;69733;48.744;9.176;2023-11-18T10:48:44;65827.00;;;-141.59;100.00
80405;BME280;69733;48.744;9.176;2023-11-18T10:51:13;65827.00;;;-141.59;100.00
80405;BME280;69733;48.744;9.176;2023-11-18T10:53:44;65827.00;;;-141.59;100.00
80405;BME280;69733;48.744;9.176;2023-11-18T10:56:24;65827.00;;;-141.59;100.00
80405;BME280;69733;48.744;9.176;2023-11-18T10:59:12;65827.00;;;-141.59;100.00
80405;BME280;69733;48.744;9.176;2023-11-18T11:01:44;65827.00;;;-141.59;100.00
80405;BME280;69733;48.744;9.176;2023-11-18T11:04:13;65827.00;;;-141.59;100.00
80405;BME280;69733;48.744;9.176;2023-11-18T11:06:44;65827.00;;;-141.59;100.00
80405;BME280;69733;48.744;9.176;2023-11-18T11:09:20;65827.00;;;-141.59;100.00
80405;BME280;69733;48.744;9.176;2023-11-18T11:11:58;65827.00;;;-141.59;100.00
80405;BME280;69733;48.744;9.176;2023-11-18T11:14:34;65827.00;;;-141.59;100.00
80405;BME280;69733;48.744;9.176;2023-11-18T11:17:08;65827.00;;;-141.59;100.00
80405;BME280;69733;48.744;9.176;2023-11-18T11:19:50;65827.00;;;-141.59;100.00
80405;BME280;69733;48.744;9.176;2023-11-18T11:22:23;65827.00;;;-141.59;100.00
80405;BME280;69733;48.744;9.176;2023-11-18T11:25:15;65827.00;;;-141.59;100.00
80405;BME280;69733;48.744;9.176;2023-11-18T11:28:08;65827.00;;;-141.59;100.00
80405;BME280;69733;48.744;9.176;2023-11-18T11:30:45;65827.00;;;-141.59;100.00
80405;BME280;69733;48.744;9.176;2023-11-18T11:35:43;65827.00;;;-141.59;100.00
80405;BME280;69733;48.744;9.176;2023-11-18T11:38:15;65827.00;;;-141.59;100.00
80405;BME280;69733;48.744;9.176;2023-11-18T11:40:42;65827.00;;;-141.59;100.00
80405;BME280;69733;48.744;9.176;2023-11-18T11:43:09;65827.00;;;-141.59;100.00
80405;BME280;69733;48.744;9.176;2023-11-18T11:45:37;65827.00;;;-141.59;100.00
80405;BME280;69733;48.744;9.176;2023-11-18T11:48:04;65827.00;;;-141.59;100.00
80405;BME280;69733;48.744;9.176;2023-11-18T11:51:02;65827.00;;;-141.59;100.00
80405;BME280;69733;48.744;9.176;2023-11-18T11:53:34;65827.00;;;-141.59;100.00
80405;BME280;69733;48.744;9.176;2023-11-18T11:56:05;65827.00;;;-141.59;100.00
80405;BME280;69733;48.744;9.176;2023-11-18T11:58:35;65827.00;;;-141.59;100.00
80405;BME280;69733;48.744;9.176;2023-11-18T12:03:43;65827.00;;;-141.59;100.00
80405;BME280;69733;48.744;9.176;2023-11-18T12:06:08;65827.00;;;-141.59;100.00
80405;BME280;69733;48.744;9.176;2023-11-18T12:08:37;65827.00;;;-141.59;100.00
80405;BME280;69733;48.744;9.176;2023-11-18T12:11:05;65827.00;;;-141.59;100.00
80405;BME280;69733;48.744;9.176;2023-11-18T12:13:35;65827.00;;;-141.59;100.00
80405;BME280;69733;48.744;9.176;2023-11-18T12:16:05;65827.00;;;-141.59;100.00
80405;BME280;69733;48.744;9.176;2023-11-18T12:18:31;65827.00;;;-141.59;100.00
80405;BME280;69733;48.744;9.176;2023-11-18T12:21:03;65827.00;;;-141.59;100.00
80405;BME280;69733;48.744;9.176;2023-11-18T12:23:29;65827.00;;;-141.59;100.00
80405;BME280;69733;48.744;9.176;2023-11-18T12:25:56;65827.00;;;-141.59;100.00
80405;BME280;69733;48.744;9.176;2023-11-18T12:28:31;65827.00;;;-141.59;100.00
80405;BME280;69733;48.744;9.176;2023-11-18T12:31:03;65827.00;;;-141.59;100.00
80405;BME280;69733;48.744;9.176;2023-11-18T12:39:27;65827.00;;;-141.59;100.00
80405;BME280;69733;48.744;9.176;2023-11-18T12:42:03;65827.00;;;-141.59;100.00
80405;BME280;69733;48.744;9.176;2023-11-18T12:44:37;65827.00;;;-141.59;100.00
80405;BME280;69733;48.744;9.176;2023-11-18T12:47:05;65827.00;;;-141.59;100.00
80405;BME280;69733;48.744;9.176;2023-11-18T12:49:44;65827.00;;;-141.59;100.00
80405;BME280;69733;48.744;9.176;2023-11-18T12:52:12;65827.00;;;-141.59;100.00